Time;durP1;ratioP1;P1;durP2;ratioP2;P2;SDS_P1;SDS_P2;PMS_P1;PMS_P2;Temp;Humidity;BMP_temperature;BMP_pressure;BME280_temperature;BME280_humidity;BME280_pressure;Samples;Min_cycle;Max_cycle;Signal;HPM_P1;HPM_P2
2022/02/09 00:07:37;;;;;;;17.73;8.90;;;;;;;;;;4340099;32;20241;-53
2022/02/09 00:10:03;;;;;;;15.03;9.13;;;;;;;;;;4340218;33;20211;-54
2022/02/09 00:12:37;;;;;;;14.20;9.10;;;;;;;;;;4390093;32;20264;-52
2022/02/09 00:33:41;;;;;;;85.30;37.90;;;;;;;;;;4339430;33;20642;-53
2022/02/09 00:35:47;;;;;;;39.27;19.13;;;;;;;;;;4341686;32;20741;-56
2022/02/09 00:43:42;;;;;;;40.63;17.70;;;;;;;;;;4339304;33;20244;-54
2022/02/09 01:41:42;;;;;;;72.57;28.63;;;;;;;;;;4338804;32;20242;-53
2022/02/09 01:57:17;;;;;;;61.67;30.30;;;;;;;;;;4338777;33;20720;-54
2022/02/09 01:59:45;;;;;;;47.30;25.97;;;;;;;;;;4328000;33;20565;-53
2022/02/09 02:02:11;;;;;;;65.20;25.63;;;;;;;;;;4324087;33;20314;-54
2022/02/09 02:04:37;;;;;;;42.20;21.20;;;;;;;;;;4335010;32;20417;-54
2022/02/09 02:07:09;;;;;;;38.50;19.77;;;;;;;;;;4338783;33;20271;-53
2022/02/09 02:09:37;;;;;;;45.83;19.80;;;;;;;;;;4339169;32;20215;-55
2022/02/09 02:12:11;;;;;;;47.13;20.83;;;;;;;;;;4338746;32;20290;-55
2022/02/09 02:14:43;;;;;;;51.60;22.10;;;;;;;;;;4389022;32;20327;-53
2022/02/09 02:17:26;;;;;;;54.93;23.33;;;;;;;;;;4386490;32;20725;-54
2022/02/09 02:19:58;;;;;;;65.03;22.77;;;;;;;;;;4338872;33;20595;-53
2022/02/09 02:44:40;;;;;;;39.70;18.73;;;;;;;;;;4326474;33;20269;-53
2022/02/09 03:13:39;;;;;;;42.73;18.07;;;;;;;;;;4326219;32;20219;-54
2022/02/09 03:16:10;;;;;;;38.43;17.40;;;;;;;;;;4324623;33;20663;-53
2022/02/09 03:18:58;;;;;;;49.50;17.20;;;;;;;;;;4325972;33;20218;-53
2022/02/09 03:24:06;;;;;;;36.87;15.47;;;;;;;;;;4325623;33;20328;-53
2022/02/09 03:42:53;;;;;;;53.60;25.17;;;;;;;;;;4340259;33;20272;-53
2022/02/09 03:58:07;;;;;;;47.30;22.20;;;;;;;;;;4339149;33;20251;-53
2022/02/09 04:00:36;;;;;;;47.63;23.07;;;;;;;;;;4325605;32;20297;-54
2022/02/09 04:03:05;;;;;;;40.63;23.03;;;;;;;;;;4326872;32;20259;-53
2022/02/09 04:05:30;;;;;;;51.03;24.27;;;;;;;;;;4340019;33;20716;-54
2022/02/09 04:07:56;;;;;;;54.63;25.87;;;;;;;;;;4340025;33;20243;-53
2022/02/09 04:10:29;;;;;;;60.63;27.17;;;;;;;;;;4390236;32;20307;-54
2022/02/09 04:13:10;;;;;;;49.07;24.33;;;;;;;;;;4339837;33;20413;-53
2022/02/09 04:40:15;;;;;;;65.70;32.87;;;;;;;;;;4340038;33;20237;-52
2022/02/09 04:43:08;;;;;;;74.87;34.80;;;;;;;;;;4339822;33;20627;-54
2022/02/09 04:50:59;;;;;;;120.83;47.97;;;;;;;;;;4354581;32;20593;-54
2022/02/09 04:54:16;;;;;;;82.03;44.23;;;;;;;;;;4339709;33;20294;-53
2022/02/09 04:56:25;;;;;;;90.13;45.07;;;;;;;;;;4339721;32;20674;-53
2022/02/09 05:18:08;;;;;;;86.93;42.03;;;;;;;;;;4339141;33;20574;-53
2022/02/09 05:23:37;;;;;;;118.80;51.33;;;;;;;;;;4339160;33;20321;-54
2022/02/09 05:28:29;;;;;;;107.07;51.30;;;;;;;;;;4338816;33;20258;-53
2022/02/09 05:30:55;;;;;;;126.27;50.93;;;;;;;;;;4339153;33;20587;-53
2022/02/09 05:33:22;;;;;;;101.20;44.67;;;;;;;;;;4338958;33;20233;-52
2022/02/09 05:35:48;;;;;;;83.03;37.87;;;;;;;;;;4338719;33;20551;-54
2022/02/09 05:38:15;;;;;;;80.83;41.80;;;;;;;;;;4339001;33;20222;-54
2022/02/09 05:40:41;;;;;;;93.90;45.90;;;;;;;;;;4339098;33;20751;-54
2022/02/09 05:43:08;;;;;;;96.93;49.43;;;;;;;;;;4338797;33;20222;-54
2022/02/09 05:53:23;;;;;;;112.07;54.30;;;;;;;;;;4339021;33;20267;-53
2022/02/09 05:56:05;;;;;;;153.50;62.13;;;;;;;;;;4339259;33;20435;-54
2022/02/09 06:00:56;;;;;;;125.10;59.60;;;;;;;;;;4326789;33;20363;-53
2022/02/09 06:03:22;;;;;;;105.50;51.00;;;;;;;;;;4373059;32;20227;-54
2022/02/09 06:05:47;;;;;;;113.57;51.30;;;;;;;;;;4326794;33;20305;-53
2022/02/09 06:08:13;;;;;;;86.43;43.03;;;;;;;;;;4326579;33;20760;-52
2022/02/09 06:10:43;;;;;;;80.37;41.87;;;;;;;;;;4327023;33;20358;-53
2022/02/09 06:13:17;;;;;;;66.53;34.70;;;;;;;;;;4338097;33;20381;-53
2022/02/09 06:16:05;;;;;;;73.37;34.33;;;;;;;;;;4392450;32;20256;-53
2022/02/09 06:21:18;;;;;;;80.17;39.83;;;;;;;;;;4340871;32;20376;-54
2022/02/09 06:23:45;;;;;;;93.07;39.97;;;;;;;;;;4341240;33;20211;-53
2022/02/09 06:26:10;;;;;;;87.47;37.20;;;;;;;;;;4341168;33;20262;-55
2022/02/09 06:28:36;;;;;;;74.13;40.60;;;;;;;;;;4341006;33;20349;-53
2022/02/09 06:31:01;;;;;;;95.17;45.47;;;;;;;;;;4341399;33;20361;-53
2022/02/09 06:33:27;;;;;;;77.30;40.37;;;;;;;;;;4327569;32;20226;-54
2022/02/09 06:35:54;;;;;;;83.83;43.13;;;;;;;;;;4339595;33;20293;-55
2022/02/09 06:38:21;;;;;;;72.33;42.00;;;;;;;;;;4340820;33;20689;-54
2022/02/09 06:40:52;;;;;;;83.43;39.70;;;;;;;;;;4341558;33;20215;-53
2022/02/09 06:43:17;;;;;;;70.03;39.77;;;;;;;;;;4341033;33;20249;-52
2022/02/09 06:45:43;;;;;;;70.17;39.97;;;;;;;;;;4341183;33;20281;-52
2022/02/09 06:48:17;;;;;;;110.27;56.13;;;;;;;;;;4340928;33;20345;-53
2022/02/09 06:50:52;;;;;;;117.70;58.57;;;;;;;;;;4340768;33;20281;-53
2022/02/09 06:55:59;;;;;;;114.23;56.03;;;;;;;;;;4328059;33;20303;-53
2022/02/09 07:01:01;;;;;;;101.43;49.60;;;;;;;;;;4340798;33;20231;-53
2022/02/09 07:03:27;;;;;;;117.70;56.93;;;;;;;;;;4340465;32;20219;-54
2022/02/09 07:05:52;;;;;;;114.80;54.20;;;;;;;;;;4340660;32;20326;-54
2022/02/09 07:08:18;;;;;;;103.10;58.27;;;;;;;;;;4340007;32;20286;-54
2022/02/09 07:10:44;;;;;;;120.87;60.53;;;;;;;;;;4391463;32;20317;-52
2022/02/09 07:13:09;;;;;;;128.47;60.70;;;;;;;;;;4340447;32;20325;-53
2022/02/09 07:15:42;;;;;;;128.97;62.97;;;;;;;;;;4340790;32;20311;-53
2022/02/09 07:18:11;;;;;;;126.33;64.63;;;;;;;;;;4359990;32;20253;-53
2022/02/09 07:23:18;;;;;;;120.70;60.70;;;;;;;;;;4340780;33;20302;-53
2022/02/09 07:25:48;;;;;;;103.33;59.17;;;;;;;;;;4340521;33;20613;-52
2022/02/09 07:28:14;;;;;;;98.60;55.47;;;;;;;;;;4340103;33;20223;-52
2022/02/09 07:30:40;;;;;;;98.93;55.17;;;;;;;;;;4340655;33;20354;-54
2022/02/09 07:33:06;;;;;;;104.33;55.80;;;;;;;;;;4340154;33;20413;-55
2022/02/09 07:35:32;;;;;;;112.77;59.07;;;;;;;;;;4340498;33;20296;-54
2022/02/09 07:37:58;;;;;;;118.33;63.10;;;;;;;;;;4340437;33;20239;-52
2022/02/09 07:40:23;;;;;;;118.53;62.00;;;;;;;;;;4340389;32;20365;-53
2022/02/09 07:42:53;;;;;;;130.13;68.03;;;;;;;;;;4339855;33;20231;-54
2022/02/09 07:50:48;;;;;;;141.77;68.07;;;;;;;;;;4340108;33;20556;-53
2022/02/09 07:53:24;;;;;;;155.53;80.27;;;;;;;;;;4340009;33;20261;-52
2022/02/09 07:55:50;;;;;;;173.43;83.53;;;;;;;;;;4340132;33;20229;-55
2022/02/09 07:58:15;;;;;;;143.37;74.37;;;;;;;;;;4338141;33;20234;-53
2022/02/09 08:00:42;;;;;;;150.67;77.93;;;;;;;;;;4325581;33;20342;-54
2022/02/09 08:03:09;;;;;;;261.90;133.87;;;;;;;;;;4313958;32;20259;-55
2022/02/09 08:05:35;;;;;;;174.73;89.97;;;;;;;;;;4339929;33;20206;-53
2022/02/09 08:08:00;;;;;;;182.17;95.53;;;;;;;;;;4339481;33;20277;-53
2022/02/09 08:31:44;;;;;;;42.30;23.33;;;;;;;;;;4324787;33;20778;-54
2022/02/09 08:34:01;;;;;;;49.83;26.30;;;;;;;;;;4324842;32;20352;-54
2022/02/09 08:36:26;;;;;;;51.27;24.67;;;;;;;;;;4325191;32;20321;-53
2022/02/09 08:38:52;;;;;;;49.03;29.20;;;;;;;;;;4325258;33;20724;-54
2022/02/09 08:41:17;;;;;;;57.87;32.40;;;;;;;;;;4311438;33;20271;-54
2022/02/09 08:43:43;;;;;;;75.37;35.33;;;;;;;;;;4311392;32;20331;-53
2022/02/09 08:46:09;;;;;;;74.63;37.37;;;;;;;;;;4324764;33;20336;-54
2022/02/09 08:48:35;;;;;;;60.87;36.50;;;;;;;;;;4311401;33;20267;-55
2022/02/09 08:51:00;;;;;;;63.57;36.03;;;;;;;;;;4311432;33;20345;-55
2022/02/09 08:53:26;;;;;;;63.57;35.97;;;;;;;;;;4324565;33;20226;-55
2022/02/09 08:55:52;;;;;;;90.27;49.40;;;;;;;;;;4324227;33;20316;-54
2022/02/09 08:58:20;;;;;;;103.03;56.77;;;;;;;;;;4323317;32;20235;-55
2022/02/09 09:00:47;;;;;;;93.10;49.90;;;;;;;;;;4324971;33;20704;-55
2022/02/09 09:05:50;;;;;;;86.93;50.47;;;;;;;;;;4339098;33;20640;-54
2022/02/09 09:08:44;;;;;;;136.67;63.07;;;;;;;;;;4339049;32;20249;-54
2022/02/09 10:03:10;;;;;;;73.13;38.27;;;;;;;;;;4326624;32;20687;-56
2022/02/09 10:14:09;;;;;;;100.10;48.70;;;;;;;;;;4341165;33;20578;-55
2022/02/09 10:34:25;;;;;;;99.97;51.47;;;;;;;;;;4326179;33;20309;-56
2022/02/09 10:37:00;;;;;;;108.27;56.03;;;;;;;;;;4312963;33;20314;-57
2022/02/09 10:39:45;;;;;;;111.20;54.47;;;;;;;;;;4326099;33;20351;-55
2022/02/09 10:44:48;;;;;;;98.67;51.67;;;;;;;;;;4326089;33;20338;-56
2022/02/09 10:47:22;;;;;;;97.33;54.67;;;;;;;;;;4326076;32;20253;-55
2022/02/09 10:50:07;;;;;;;87.90;49.80;;;;;;;;;;4325522;32;20286;-56
2022/02/09 10:52:40;;;;;;;93.87;51.67;;;;;;;;;;4325895;33;20231;-56
2022/02/09 10:55:30;;;;;;;97.70;52.10;;;;;;;;;;4325646;33;20312;-55
2022/02/09 10:57:56;;;;;;;86.80;50.00;;;;;;;;;;4325817;33;20689;-55
2022/02/09 11:00:23;;;;;;;96.47;50.97;;;;;;;;;;4325876;32;20259;-55
2022/02/09 11:02:50;;;;;;;106.10;51.87;;;;;;;;;;4325795;33;20844;-56
2022/02/09 11:05:19;;;;;;;149.97;80.53;;;;;;;;;;4325738;32;20268;-56
2022/02/09 11:07:45;;;;;;;176.17;97.23;;;;;;;;;;4325916;32;20257;-55
2022/02/09 11:10:11;;;;;;;121.50;68.43;;;;;;;;;;4325834;33;20258;-56
2022/02/09 11:12:37;;;;;;;114.53;56.87;;;;;;;;;;4325510;33;20242;-57
2022/02/09 11:15:05;;;;;;;99.00;58.13;;;;;;;;;;4325300;33;20305;-56
2022/02/09 11:17:32;;;;;;;127.80;65.70;;;;;;;;;;4325488;32;20306;-55
2022/02/09 11:19:58;;;;;;;137.33;71.63;;;;;;;;;;4325534;32;20241;-56
2022/02/09 11:22:25;;;;;;;148.30;77.97;;;;;;;;;;4326070;33;20710;-55
2022/02/09 11:25:12;;;;;;;158.60;82.37;;;;;;;;;;4325508;33;20288;-55
2022/02/09 11:27:45;;;;;;;139.23;74.97;;;;;;;;;;4325771;33;20867;-55
2022/02/09 11:30:22;;;;;;;146.80;78.07;;;;;;;;;;4325831;33;20195;-55
2022/02/09 11:36:21;;;;;;;141.90;78.57;;;;;;;;;;4325644;33;20191;-55
2022/02/09 11:38:52;;;;;;;148.80;78.67;;;;;;;;;;4325885;32;20646;-55
2022/02/09 11:41:23;;;;;;;137.37;77.47;;;;;;;;;;4326008;33;20223;-57
2022/02/09 11:46:42;;;;;;;142.23;76.07;;;;;;;;;;4325574;33;20251;-55
2022/02/09 11:52:24;;;;;;;122.57;66.63;;;;;;;;;;4324993;33;20262;-55
2022/02/09 12:12:00;;;;;;;115.20;60.40;;;;;;;;;;4339135;33;20463;-55
2022/02/09 12:17:36;;;;;;;98.00;54.33;;;;;;;;;;4339398;33;20226;-56
2022/02/09 12:20:32;;;;;;;104.13;57.07;;;;;;;;;;4387060;32;20269;-55
2022/02/09 12:25:45;;;;;;;102.67;51.00;;;;;;;;;;4324368;33;20636;-56
2022/02/09 12:28:19;;;;;;;79.00;44.60;;;;;;;;;;4324613;33;20286;-56
2022/02/09 12:30:45;;;;;;;76.03;41.80;;;;;;;;;;4387093;32;20222;-56
2022/02/09 12:33:21;;;;;;;117.00;54.17;;;;;;;;;;4324346;32;20303;-57
2022/02/09 12:35:48;;;;;;;159.57;66.53;;;;;;;;;;4374262;32;20254;-56
2022/02/09 12:38:13;;;;;;;79.40;33.17;;;;;;;;;;4324089;32;20231;-56
2022/02/09 12:40:39;;;;;;;43.93;21.93;;;;;;;;;;4324287;33;20327;-56
2022/02/09 12:43:07;;;;;;;42.23;21.87;;;;;;;;;;4324381;33;20675;-56
2022/02/09 12:45:36;;;;;;;106.87;49.30;;;;;;;;;;4373166;32;20585;-56
2022/02/09 12:48:04;;;;;;;39.40;22.63;;;;;;;;;;4322986;33;20263;-55
2022/02/09 12:50:38;;;;;;;60.47;29.70;;;;;;;;;;4324182;33;20198;-56
2022/02/09 12:53:07;;;;;;;41.50;25.23;;;;;;;;;;4323915;32;20508;-56
2022/02/09 12:55:35;;;;;;;47.73;24.53;;;;;;;;;;4323911;33;20262;-55
2022/02/09 12:58:08;;;;;;;85.03;39.57;;;;;;;;;;4324106;33;20256;-56
2022/02/09 13:00:38;;;;;;;85.27;43.83;;;;;;;;;;4324101;33;20214;-55
2022/02/09 13:03:07;;;;;;;76.73;35.43;;;;;;;;;;4325476;33;20270;-56
2022/02/09 13:05:41;;;;;;;47.43;24.73;;;;;;;;;;4340258;33;20229;-56
2022/02/09 13:08:07;;;;;;;54.80;31.50;;;;;;;;;;4341232;32;20283;-54
2022/02/09 13:10:39;;;;;;;55.37;30.53;;;;;;;;;;4341919;33;20281;-54
2022/02/09 13:13:14;;;;;;;49.53;28.77;;;;;;;;;;4342119;32;20277;-55
2022/02/09 13:15:51;;;;;;;63.10;27.03;;;;;;;;;;4342469;33;20199;-54
2022/02/09 13:18:37;;;;;;;40.67;23.27;;;;;;;;;;4392585;32;20234;-54
2022/02/09 14:15:47;;;;;;;4.33;3.53;;;;;;;;;;4338970;32;20293;-55
2022/02/09 14:50:28;;;;;;;15.70;9.93;;;;;;;;;;4328387;33;20268;-56
2022/02/09 14:52:35;;;;;;;10.50;7.13;;;;;;;;;;4325840;32;20231;-56
2022/02/09 14:58:01;;;;;;;10.23;6.43;;;;;;;;;;4325509;33;20632;-55
2022/02/09 15:00:26;;;;;;;6.63;4.83;;;;;;;;;;4325754;33;20218;-55
2022/02/09 15:03:03;;;;;;;18.23;9.43;;;;;;;;;;4325518;33;20747;-55
2022/02/09 15:08:29;;;;;;;20.10;7.63;;;;;;;;;;4325549;33;20357;-55
2022/02/09 15:11:17;;;;;;;15.50;9.70;;;;;;;;;;4325231;32;20203;-55
2022/02/09 15:14:33;;;;;;;20.50;11.40;;;;;;;;;;4323537;32;20307;-55
2022/02/09 15:16:38;;;;;;;15.77;10.53;;;;;;;;;;4318868;33;20341;-56
2022/02/09 15:24:28;;;;;;;34.00;16.80;;;;;;;;;;4338175;33;20261;-56
2022/02/09 15:26:56;;;;;;;33.90;16.13;;;;;;;;;;4338091;33;20634;-56
2022/02/09 15:29:22;;;;;;;37.33;14.80;;;;;;;;;;4337886;33;20626;-56
2022/02/09 15:31:52;;;;;;;35.20;18.23;;;;;;;;;;4339928;33;20354;-56
2022/02/09 15:34:26;;;;;;;55.63;23.67;;;;;;;;;;4338932;33;20203;-55
2022/02/09 15:37:04;;;;;;;49.33;20.60;;;;;;;;;;4337745;33;20426;-56
2022/02/09 15:39:33;;;;;;;28.50;15.53;;;;;;;;;;4334784;33;20275;-56
2022/02/09 15:58:33;;;;;;;32.77;18.80;;;;;;;;;;4339050;33;20350;-55
2022/02/09 16:07:00;;;;;;;32.33;20.00;;;;;;;;;;4337943;33;20539;-55
2022/02/09 16:09:41;;;;;;;31.33;15.87;;;;;;;;;;4338062;32;20717;-54
2022/02/09 16:22:36;;;;;;;30.57;17.37;;;;;;;;;;4330229;33;20245;-55
2022/02/09 16:33:19;;;;;;;34.03;21.07;;;;;;;;;;4339276;33;20657;-55
2022/02/09 16:46:35;;;;;;;30.20;21.80;;;;;;;;;;4339286;33;20253;-56
2022/02/09 16:51:38;;;;;;;45.63;24.53;;;;;;;;;;4338414;33;20360;-55
2022/02/09 17:20:42;;;;;;;144.03;71.37;;;;;;;;;;4324282;33;20215;-56
2022/02/09 17:23:07;;;;;;;145.07;72.90;;;;;;;;;;4333679;33;20258;-55
2022/02/09 17:25:33;;;;;;;149.93;74.63;;;;;;;;;;4338972;33;20331;-54
2022/02/09 17:27:58;;;;;;;150.00;78.30;;;;;;;;;;4338652;33;20607;-55
2022/02/09 17:33:10;;;;;;;172.23;91.07;;;;;;;;;;4338174;33;20231;-55
2022/02/09 17:36:02;;;;;;;190.87;99.40;;;;;;;;;;4388715;32;20369;-55
2022/02/09 17:57:06;;;;;;;149.27;75.17;;;;;;;;;;4326049;33;20330;-55
2022/02/09 17:59:33;;;;;;;156.37;69.47;;;;;;;;;;4376623;32;20262;-55
2022/02/09 18:01:59;;;;;;;140.57;66.43;;;;;;;;;;4325750;33;20334;-55
2022/02/09 18:04:24;;;;;;;174.97;76.03;;;;;;;;;;4335949;33;20286;-56
2022/02/09 18:07:02;;;;;;;167.90;78.20;;;;;;;;;;4341139;32;20367;-55
2022/02/09 18:09:33;;;;;;;174.67;89.63;;;;;;;;;;4341322;33;20226;-55
2022/02/09 19:32:11;;;;;;;165.57;86.07;;;;;;;;;;4325760;33;20312;-54
2022/02/09 19:55:52;;;;;;;216.03;110.57;;;;;;;;;;4325333;33;20191;-55
2022/02/09 19:58:20;;;;;;;318.40;143.30;;;;;;;;;;4325375;33;20325;-55
2022/02/09 20:00:45;;;;;;;322.50;153.33;;;;;;;;;;4325529;33;20255;-54
2022/02/09 20:03:13;;;;;;;365.70;171.10;;;;;;;;;;4326865;33;20242;-56
2022/02/09 20:05:38;;;;;;;361.10;166.13;;;;;;;;;;4339515;33;20270;-55
2022/02/09 20:08:05;;;;;;;352.67;158.60;;;;;;;;;;4390140;32;20297;-54
2022/02/09 20:10:31;;;;;;;352.73;151.50;;;;;;;;;;4340008;33;20235;-56
2022/02/09 20:12:57;;;;;;;327.17;160.33;;;;;;;;;;4339498;32;20259;-54
2022/02/09 20:15:22;;;;;;;279.70;144.50;;;;;;;;;;4333974;32;20290;-56
2022/02/09 20:17:48;;;;;;;330.20;148.90;;;;;;;;;;4324770;33;20232;-54
2022/02/09 20:20:22;;;;;;;276.83;141.53;;;;;;;;;;4325070;33;20289;-56
2022/02/09 20:22:49;;;;;;;262.80;128.60;;;;;;;;;;4332704;33;20713;-54
2022/02/09 20:25:17;;;;;;;249.90;131.73;;;;;;;;;;4339412;33;20268;-54
2022/02/09 20:27:43;;;;;;;249.23;126.57;;;;;;;;;;4339687;33;20269;-55
2022/02/09 20:30:12;;;;;;;238.20;125.63;;;;;;;;;;4339730;33;20324;-55
2022/02/09 20:32:45;;;;;;;256.47;136.30;;;;;;;;;;4339858;33;20219;-54
2022/02/09 20:35:14;;;;;;;196.57;101.27;;;;;;;;;;4339301;33;20548;-54
2022/02/09 20:37:44;;;;;;;133.47;66.63;;;;;;;;;;4339812;33;20306;-55
2022/02/09 20:40:16;;;;;;;183.87;97.47;;;;;;;;;;4339319;33;20206;-54
2022/02/09 20:42:51;;;;;;;239.60;116.67;;;;;;;;;;4339555;33;20251;-55
2022/02/09 20:45:24;;;;;;;259.80;123.97;;;;;;;;;;4339641;33;20205;-55
2022/02/09 20:47:57;;;;;;;270.30;124.93;;;;;;;;;;4389796;32;20226;-55
2022/02/09 20:50:22;;;;;;;255.80;122.77;;;;;;;;;;4339365;33;20276;-54
2022/02/09 20:52:48;;;;;;;251.57;121.83;;;;;;;;;;4339281;33;20219;-53
2022/02/09 20:55:13;;;;;;;238.87;117.57;;;;;;;;;;4339387;33;20304;-54
2022/02/09 20:57:39;;;;;;;232.27;109.63;;;;;;;;;;4339246;33;20297;-55
2022/02/09 21:00:10;;;;;;;234.10;112.93;;;;;;;;;;4339138;33;20365;-55
2022/02/09 21:02:52;;;;;;;251.83;126.00;;;;;;;;;;4324449;32;20336;-54
2022/02/09 21:08:07;;;;;;;215.63;107.50;;;;;;;;;;4339207;32;20248;-55
2022/02/09 21:13:31;;;;;;;311.70;147.87;;;;;;;;;;4339005;32;20577;-53
2022/02/09 21:21:39;;;;;;;330.83;154.10;;;;;;;;;;4339162;33;20515;-54
2022/02/09 21:24:36;;;;;;;349.87;156.40;;;;;;;;;;4333766;32;20230;-55
2022/02/09 22:20:17;;;;;;;108.73;50.97;;;;;;;;;;4338718;33;20286;-54
2022/02/09 22:28:16;;;;;;;133.33;63.20;;;;;;;;;;4338402;33;20250;-53
2022/02/09 22:45:30;;;;;;;86.70;38.07;;;;;;;;;;4338614;33;20657;-53
2022/02/09 22:50:01;;;;;;;73.33;33.83;;;;;;;;;;4326208;33;20242;-53
2022/02/09 22:55:14;;;;;;;98.37;41.50;;;;;;;;;;4368727;32;20274;-54
2022/02/09 22:57:50;;;;;;;92.63;43.73;;;;;;;;;;4374030;32;20280;-53
2022/02/09 23:06:12;;;;;;;135.30;62.77;;;;;;;;;;4340588;32;20208;-53
2022/02/09 23:24:37;;;;;;;131.97;66.83;;;;;;;;;;4340313;33;20352;-54
